Time;durP1;ratioP1;P1;durP2;ratioP2;P2;SDS_P1;SDS_P2;PMS_P1;PMS_P2;Temp;Humidity;BMP_temperature;BMP_pressure;BME280_temperature;BME280_humidity;BME280_pressure;Samples;Min_cycle;Max_cycle;Signal;HPM_P1;HPM_P2
2021/12/15 00:00:18;;;;;;;520.42;265.70;;;;;;;10.20;100.00;99225.16;5067373;28;20131;-62
2021/12/15 00:03:00;;;;;;;504.42;261.35;;;;;;;10.28;100.00;99231.84;5067782;28;20075;-62
2021/12/15 00:05:54;;;;;;;513.72;262.02;;;;;;;10.35;100.00;99225.69;5047639;28;20052;-62
2021/12/15 00:08:45;;;;;;;523.50;263.55;;;;;;;10.32;100.00;99235.19;5066321;28;20045;-62
2021/12/15 00:11:37;;;;;;;518.95;266.73;;;;;;;10.14;100.00;99226.06;5063777;28;20048;-62
2021/12/15 00:14:24;;;;;;;492.60;247.95;;;;;;;9.95;100.00;99235.03;5065411;28;20052;-62
2021/12/15 00:17:07;;;;;;;481.70;246.27;;;;;;;9.83;100.00;99230.94;5067400;28;20110;-62
2021/12/15 00:19:54;;;;;;;490.17;241.85;;;;;;;9.68;100.00;99241.50;5079499;28;20468;-62
2021/12/15 00:22:36;;;;;;;478.63;237.48;;;;;;;9.59;100.00;99237.38;5087047;28;20047;-61
2021/12/15 00:25:28;;;;;;;470.20;233.43;;;;;;;9.58;100.00;99242.53;5087258;28;20662;-62
2021/12/15 00:28:17;;;;;;;458.35;224.98;;;;;;;9.56;100.00;99252.03;5087174;28;20850;-62
2021/12/15 00:31:05;;;;;;;459.02;222.75;;;;;;;9.60;100.00;99253.66;5068565;28;20048;-63
2021/12/15 00:33:49;;;;;;;459.33;221.73;;;;;;;9.59;100.00;99257.09;5087204;28;20144;-62
2021/12/15 00:36:37;;;;;;;456.05;216.38;;;;;;;9.80;100.00;99267.03;5087166;28;20048;-62
2021/12/15 00:39:28;;;;;;;456.27;219.77;;;;;;;9.65;100.00;99262.16;5086741;28;20063;-62
2021/12/15 00:42:10;;;;;;;450.98;215.10;;;;;;;9.47;100.00;99267.59;5068893;28;20044;-63
2021/12/15 00:44:58;;;;;;;443.85;213.38;;;;;;;9.69;100.00;99258.63;5087421;28;20567;-62
2021/12/15 00:47:40;;;;;;;438.48;209.18;;;;;;;9.74;100.00;99263.69;5069978;28;20051;-62
2021/12/15 00:50:33;;;;;;;433.52;207.75;;;;;;;9.66;100.00;99271.53;5076912;28;20056;-62
2021/12/15 00:53:21;;;;;;;434.15;206.75;;;;;;;9.72;100.00;99278.31;5066654;28;20099;-63
2021/12/15 00:56:10;;;;;;;417.13;199.38;;;;;;;9.82;100.00;99269.56;5031738;28;20044;-62
2021/12/15 00:58:52;;;;;;;433.13;203.68;;;;;;;9.85;100.00;99270.38;5065643;28;20053;-61
2021/12/15 01:01:41;;;;;;;432.13;199.38;;;;;;;9.76;100.00;99269.66;5061567;28;20055;-63
2021/12/15 01:04:18;;;;;;;426.58;199.73;;;;;;;9.80;100.00;99281.63;5045895;28;20048;-62
2021/12/15 01:07:16;;;;;;;421.65;196.00;;;;;;;9.89;100.00;99278.91;5035145;28;20067;-62
2021/12/15 01:10:06;;;;;;;415.80;196.68;;;;;;;9.85;100.00;99275.50;5013336;28;20053;-62
2021/12/15 01:12:52;;;;;;;410.77;193.50;;;;;;;9.83;100.00;99276.41;5028214;28;20053;-62
2021/12/15 01:21:54;;;;;;;418.98;199.20;;;;;;;9.83;100.00;99277.25;5027568;28;20068;-63
2021/12/15 01:24:37;;;;;;;411.30;197.40;;;;;;;9.87;100.00;99283.22;5045347;28;20045;-62
2021/12/15 01:27:26;;;;;;;419.00;199.23;;;;;;;9.82;100.00;99283.28;5026544;28;20081;-62
2021/12/15 01:30:19;;;;;;;423.02;200.95;;;;;;;9.65;100.00;99284.47;5043557;28;20059;-62
2021/12/15 01:33:07;;;;;;;413.83;200.27;;;;;;;9.75;100.00;99284.25;5030954;28;20059;-62
2021/12/15 01:35:53;;;;;;;447.60;210.90;;;;;;;9.76;100.00;99292.81;5011122;28;20119;-62
2021/12/15 01:38:44;;;;;;;422.58;200.68;;;;;;;9.68;100.00;99297.25;5027505;28;20049;-63
2021/12/15 01:41:33;;;;;;;436.42;208.77;;;;;;;9.55;100.00;99302.59;5011894;28;20048;-62
2021/12/15 01:47:07;;;;;;;420.13;206.90;;;;;;;9.44;100.00;99314.78;5039839;28;20045;-63
2021/12/15 01:49:52;;;;;;;441.42;206.43;;;;;;;9.33;100.00;99308.97;5021258;28;20049;-62
2021/12/15 01:52:44;;;;;;;415.70;197.50;;;;;;;9.35;100.00;99307.19;5028484;28;20055;-62
2021/12/15 01:55:26;;;;;;;419.65;199.95;;;;;;;9.29;100.00;99314.16;5045847;28;20107;-62
2021/12/15 02:03:12;;;;;;;378.23;176.43;;;;;;;9.07;100.00;99321.31;5022730;28;20065;-63
2021/12/15 02:06:01;;;;;;;378.67;181.13;;;;;;;9.01;100.00;99318.84;5057231;28;20507;-62
2021/12/15 02:08:49;;;;;;;373.25;172.68;;;;;;;8.96;100.00;99324.03;5031130;28;20057;-62
2021/12/15 02:11:30;;;;;;;348.70;167.63;;;;;;;8.89;100.00;99340.41;5033926;28;20056;-63
2021/12/15 02:14:19;;;;;;;332.95;161.13;;;;;;;8.83;100.00;99341.34;5049956;28;20103;-63
2021/12/15 02:17:01;;;;;;;281.00;141.93;;;;;;;8.53;100.00;99338.28;5049895;28;20048;-62
2021/12/15 02:19:49;;;;;;;285.80;139.82;;;;;;;8.50;100.00;99349.44;5034733;28;20056;-64
2021/12/15 02:22:32;;;;;;;255.48;131.77;;;;;;;8.32;100.00;99354.75;5029148;28;20484;-63
2021/12/15 02:25:22;;;;;;;253.27;129.02;;;;;;;8.30;100.00;99357.28;5015541;28;20041;-63
2021/12/15 02:28:06;;;;;;;269.88;129.63;;;;;;;8.45;100.00;99358.91;5049957;28;20053;-63
2021/12/15 02:31:00;;;;;;;257.50;126.53;;;;;;;8.59;100.00;99362.16;5009455;28;20144;-64
2021/12/15 02:33:53;;;;;;;265.40;129.88;;;;;;;8.58;100.00;99357.91;4988103;28;20064;-63
2021/12/15 02:40:10;;;;;;;283.33;130.18;;;;;;;8.35;100.00;99370.13;5006450;28;20476;-64
2021/12/15 02:42:58;;;;;;;267.27;129.70;;;;;;;8.54;100.00;99366.47;5028777;28;20045;-62
2021/12/15 02:45:45;;;;;;;255.68;125.47;;;;;;;8.43;100.00;99381.16;5036341;28;20099;-64
2021/12/15 02:48:27;;;;;;;281.98;126.90;;;;;;;8.56;100.00;99381.88;5008657;28;20787;-64
2021/12/15 02:51:16;;;;;;;269.48;127.88;;;;;;;8.51;100.00;99384.50;5010724;28;20045;-64
2021/12/15 02:54:07;;;;;;;332.20;131.38;;;;;;;8.36;100.00;99374.41;5004235;28;20045;-63
2021/12/15 02:57:11;;;;;;;276.75;130.35;;;;;;;8.41;100.00;99385.47;5040948;28;20157;-64
2021/12/15 03:05:58;;;;;;;301.15;130.95;;;;;;;8.32;100.00;99393.25;5044357;28;20056;-64
2021/12/15 03:09:13;;;;;;;266.35;129.38;;;;;;;8.60;100.00;99404.97;5041704;28;20049;-64
2021/12/15 03:15:34;;;;;;;366.77;131.60;;;;;;;8.39;100.00;99400.88;5040324;28;20053;-64
2021/12/15 03:18:25;;;;;;;344.63;134.63;;;;;;;8.34;100.00;99412.06;5019597;28;20045;-65
2021/12/15 03:21:14;;;;;;;383.67;143.02;;;;;;;8.44;100.00;99413.69;5021496;28;20046;-64
2021/12/15 03:24:07;;;;;;;329.55;140.57;;;;;;;8.59;100.00;99413.53;5046664;28;20049;-65
2021/12/15 03:27:11;;;;;;;374.83;144.15;;;;;;;8.49;100.00;99411.06;5020883;28;20052;-63
2021/12/15 03:36:06;;;;;;;349.88;152.52;;;;;;;8.99;100.00;99419.06;5030982;28;20049;-63
2021/12/15 03:38:54;;;;;;;409.33;178.10;;;;;;;9.14;100.00;99421.47;5008080;28;20045;-63
2021/12/15 03:41:43;;;;;;;437.75;190.30;;;;;;;9.27;100.00;99409.28;5020362;28;20077;-63
2021/12/15 03:44:35;;;;;;;504.45;234.10;;;;;;;9.43;100.00;99418.50;5041716;28;20044;-63
2021/12/15 03:47:28;;;;;;;507.77;234.05;;;;;;;9.57;100.00;99415.75;5040991;28;20033;-63
2021/12/15 03:50:13;;;;;;;587.60;271.95;;;;;;;9.70;100.00;99424.13;5044535;28;20361;-62
2021/12/15 03:53:02;;;;;;;621.05;293.02;;;;;;;9.84;100.00;99424.78;5046123;28;20073;-63
2021/12/15 03:55:38;;;;;;;637.95;301.45;;;;;;;10.00;100.00;99433.97;5009822;28;20062;-63
2021/12/15 03:58:26;;;;;;;641.53;304.67;;;;;;;10.08;100.00;99432.13;5038426;28;20159;-64
2021/12/15 04:01:17;;;;;;;653.08;307.92;;;;;;;10.67;100.00;99431.13;5043646;28;20052;-64
2021/12/15 04:03:58;;;;;;;665.67;317.13;;;;;;;10.92;100.00;99434.09;5047200;28;20045;-64
2021/12/15 04:06:47;;;;;;;646.38;315.10;;;;;;;11.16;100.00;99440.50;5005966;28;20045;-64
2021/12/15 04:09:28;;;;;;;669.13;318.73;;;;;;;11.13;100.00;99437.97;5042111;28;20049;-64
2021/12/15 04:12:19;;;;;;;623.38;309.90;;;;;;;11.38;100.00;99443.47;5037352;28;20110;-64
2021/12/15 04:15:21;;;;;;;635.70;310.98;;;;;;;11.57;100.00;99449.13;5036366;28;20479;-64
2021/12/15 04:18:10;;;;;;;639.80;312.17;;;;;;;11.77;100.00;99450.38;5037360;28;20076;-62
2021/12/15 04:20:53;;;;;;;669.75;326.95;;;;;;;12.05;100.00;99460.91;5020302;28;20055;-64
2021/12/15 04:23:42;;;;;;;685.72;339.40;;;;;;;12.36;100.00;99458.47;5022123;28;20049;-63
2021/12/15 04:26:30;;;;;;;682.75;338.88;;;;;;;12.52;100.00;99459.78;5024154;28;20103;-64
2021/12/15 04:29:13;;;;;;;700.45;349.95;;;;;;;12.59;100.00;99463.91;5019079;28;20054;-63
2021/12/15 04:32:13;;;;;;;740.80;363.55;;;;;;;12.95;100.00;99471.56;5016516;28;20118;-62
2021/12/15 04:35:01;;;;;;;728.00;367.45;;;;;;;13.20;100.00;99474.38;5046593;28;20418;-62
2021/12/15 04:37:45;;;;;;;732.08;366.40;;;;;;;13.65;100.00;99482.53;5022492;28;20329;-63
2021/12/15 04:40:34;;;;;;;720.47;356.98;;;;;;;13.72;100.00;99481.50;5019291;28;20283;-62
2021/12/15 04:43:23;;;;;;;702.78;358.27;;;;;;;13.84;100.00;99470.75;5026723;28;20143;-64
2021/12/15 04:46:05;;;;;;;709.00;356.67;;;;;;;13.96;100.00;99472.97;5006535;28;20046;-64
2021/12/15 04:48:54;;;;;;;719.20;359.95;;;;;;;13.84;100.00;99465.56;5032707;28;20134;-65
2021/12/15 04:51:42;;;;;;;693.58;359.17;;;;;;;14.17;100.00;99476.63;5045103;28;20385;-65
2021/12/15 04:54:25;;;;;;;740.43;370.83;;;;;;;14.22;100.00;99479.06;5045524;28;20048;-64
2021/12/15 04:57:16;;;;;;;719.53;364.98;;;;;;;14.57;100.00;99476.22;5028077;28;20134;-65
2021/12/15 05:00:13;;;;;;;676.00;347.80;;;;;;;14.37;100.00;99474.22;5032673;28;20052;-65
2021/12/15 05:02:55;;;;;;;667.03;341.08;;;;;;;14.61;100.00;99476.94;5019598;28;20102;-65
2021/12/15 05:05:43;;;;;;;648.65;332.73;;;;;;;14.58;100.00;99467.53;5039442;28;20653;-65
2021/12/15 05:08:32;;;;;;;668.15;344.75;;;;;;;14.79;100.00;99466.81;5038314;28;20072;-64
2021/12/15 05:11:21;;;;;;;669.08;342.95;;;;;;;14.96;100.00;99462.78;5018186;28;20045;-65
2021/12/15 05:14:03;;;;;;;711.60;373.80;;;;;;;14.96;100.00;99467.97;5027397;28;20063;-67
2021/12/15 05:16:53;;;;;;;770.00;390.00;;;;;;;15.23;100.00;99467.00;5033324;28;20045;-67
2021/12/15 05:19:43;;;;;;;828.40;421.05;;;;;;;15.33;100.00;99466.56;5020856;28;20049;-66
2021/12/15 05:22:32;;;;;;;894.45;455.50;;;;;;;15.31;100.00;99464.97;5038820;28;20049;-65
2021/12/15 05:25:16;;;;;;;927.17;471.83;;;;;;;15.41;100.00;99455.91;5036674;28;20065;-63
2021/12/15 05:28:05;;;;;;;930.67;485.60;;;;;;;15.43;100.00;99467.09;5036699;28;20143;-64
2021/12/15 05:30:53;;;;;;;905.28;476.85;;;;;;;15.40;100.00;99459.44;5010405;28;20488;-63
2021/12/15 05:33:41;;;;;;;903.78;476.70;;;;;;;15.59;100.00;99463.06;5019530;28;20060;-64
2021/12/15 05:36:23;;;;;;;858.63;447.05;;;;;;;15.62;100.00;99468.16;5035758;28;20119;-64
2021/12/15 05:39:10;;;;;;;733.40;384.25;;;;;;;15.76;100.00;99458.97;5043358;28;20053;-64
2021/12/15 05:41:53;;;;;;;720.13;374.27;;;;;;;15.86;100.00;99460.31;5021124;28;20177;-63
2021/12/15 05:44:40;;;;;;;736.00;396.13;;;;;;;15.86;100.00;99458.56;5044323;28;20052;-63
2021/12/15 05:47:25;;;;;;;758.88;398.83;;;;;;;15.86;100.00;99455.13;5044997;28;20519;-63
2021/12/15 05:50:14;;;;;;;746.80;390.88;;;;;;;15.59;100.00;99450.06;5029643;28;20077;-64
2021/12/15 05:52:56;;;;;;;706.67;378.10;;;;;;;16.37;100.00;99449.56;5016532;28;20626;-64
2021/12/15 05:55:44;;;;;;;699.25;370.95;;;;;;;16.20;100.00;99446.84;5024655;28;20053;-66
2021/12/15 05:58:34;;;;;;;704.38;369.05;;;;;;;16.55;100.00;99447.97;5045774;28;20052;-65
2021/12/15 06:01:17;;;;;;;691.47;363.80;;;;;;;16.63;100.00;99444.16;5046529;28;20075;-65
2021/12/15 06:04:14;;;;;;;619.40;322.73;;;;;;;16.60;100.00;99430.44;5034661;28;20037;-64
2021/12/15 06:07:04;;;;;;;619.53;321.38;;;;;;;16.61;100.00;99434.72;5017937;28;20132;-63
2021/12/15 06:09:53;;;;;;;595.88;306.38;;;;;;;16.83;100.00;99432.91;5031527;28;20133;-65
2021/12/15 06:12:34;;;;;;;582.38;306.95;;;;;;;16.89;100.00;99427.44;5035975;28;20493;-63
2021/12/15 06:15:28;;;;;;;564.70;295.40;;;;;;;16.88;100.00;99427.50;5020371;28;20040;-64
2021/12/15 06:18:18;;;;;;;;;;;;;;;16.98;100.00;99416.63;5032388;28;20122;-65
2021/12/15 06:21:07;;;;;;;567.53;285.42;;;;;;;16.69;100.00;99409.22;5039408;28;19925;-66
2021/12/15 06:23:54;;;;;;;551.88;278.80;;;;;;;16.89;100.00;99414.41;5014796;28;20119;-65
2021/12/15 06:26:44;;;;;;;533.40;270.58;;;;;;;17.17;100.00;99408.81;5034391;28;20052;-63
2021/12/15 06:29:25;;;;;;;529.95;272.02;;;;;;;16.97;100.00;99404.50;5040397;28;20052;-64
2021/12/15 06:32:15;;;;;;;502.60;256.30;;;;;;;17.30;100.00;99406.53;5042036;28;20484;-61
2021/12/15 06:35:06;;;;;;;444.48;226.60;;;;;;;17.01;100.00;99398.25;5044757;28;20048;-63
2021/12/15 06:37:54;;;;;;;482.27;230.93;;;;;;;16.88;100.00;99393.66;5037116;28;20052;-63
2021/12/15 06:40:36;;;;;;;457.45;222.27;;;;;;;16.89;100.00;99392.75;5023648;28;20049;-63
2021/12/15 06:43:24;;;;;;;457.73;222.00;;;;;;;17.01;100.00;99392.19;5041365;28;20487;-63
2021/12/15 06:58:35;;;;;;;424.83;205.27;;;;;;;17.38;100.00;99352.31;5036671;28;20081;-63
2021/12/15 07:01:23;;;;;;;401.45;190.95;;;;;;;17.49;100.00;99350.03;5039108;28;20137;-64
2021/12/15 07:04:20;;;;;;;355.05;181.05;;;;;;;17.51;100.00;99353.41;5037669;28;20059;-62
2021/12/15 07:07:07;;;;;;;369.45;181.27;;;;;;;17.63;100.00;99341.59;5043540;28;20049;-62
2021/12/15 07:09:50;;;;;;;372.25;182.40;;;;;;;17.77;100.00;99333.97;5046094;28;20063;-62
2021/12/15 07:12:43;;;;;;;352.83;174.50;;;;;;;17.23;100.00;99332.19;5028221;28;20113;-63
2021/12/15 07:15:34;;;;;;;332.98;172.77;;;;;;;17.73;100.00;99328.03;5035993;28;20056;-62
2021/12/15 07:18:27;;;;;;;354.52;166.30;;;;;;;17.51;100.00;99316.94;5038314;28;20069;-62
2021/12/15 07:21:21;;;;;;;352.17;174.52;;;;;;;17.93;100.00;99314.88;5041726;28;20063;-62
2021/12/15 07:24:03;;;;;;;343.42;171.77;;;;;;;17.79;100.00;99306.91;5039932;28;20483;-62
2021/12/15 07:26:52;;;;;;;357.98;172.77;;;;;;;17.79;99.19;99306.06;5041355;28;20049;-62
2021/12/15 07:29:35;;;;;;;330.77;169.25;;;;;;;17.54;99.38;99303.78;5042718;28;20106;-63
2021/12/15 07:32:23;;;;;;;341.02;167.15;;;;;;;17.70;99.67;99289.13;5041480;28;20045;-63
2021/12/15 07:35:05;;;;;;;354.02;172.80;;;;;;;17.95;100.00;99291.34;5047547;28;20460;-62
2021/12/15 07:37:53;;;;;;;343.77;169.70;;;;;;;18.03;100.00;99284.00;5048203;28;20041;-62
2021/12/15 07:40:43;;;;;;;370.33;191.40;;;;;;;18.15;99.86;99288.56;5041842;28;20049;-63
2021/12/15 07:43:24;;;;;;;350.35;173.55;;;;;;;18.22;100.00;99276.91;5040830;28;20430;-62
2021/12/15 07:46:14;;;;;;;380.02;189.18;;;;;;;18.31;100.00;99271.22;5040438;28;20090;-62
2021/12/15 07:48:55;;;;;;;380.13;192.77;;;;;;;18.21;100.00;99267.38;5040895;28;20063;-62
2021/12/15 07:51:45;;;;;;;377.55;193.68;;;;;;;18.24;100.00;99262.00;5044281;28;20052;-62
2021/12/15 07:54:33;;;;;;;356.15;179.98;;;;;;;17.84;97.28;99257.16;5039066;28;20052;-62
2021/12/15 07:57:23;;;;;;;366.42;180.07;;;;;;;18.09;98.14;99254.13;5027716;28;20069;-62
2021/12/15 08:00:08;;;;;;;366.13;180.35;;;;;;;18.20;98.04;99250.03;5043780;28;20059;-61
2021/12/15 08:02:58;;;;;;;378.83;182.60;;;;;;;18.13;100.00;99247.84;5041919;28;20372;-62
2021/12/15 08:05:49;;;;;;;348.85;172.18;;;;;;;18.00;99.06;99244.19;5044094;28;20106;-61
2021/12/15 08:08:34;;;;;;;353.73;179.25;;;;;;;18.08;100.00;99234.19;5039964;28;20696;-61
2021/12/15 08:11:23;;;;;;;368.63;180.70;;;;;;;18.03;98.17;99234.44;5033542;28;20155;-62
2021/12/15 08:14:05;;;;;;;357.60;176.70;;;;;;;18.06;99.81;99223.00;5047780;28;20048;-62
2021/12/15 08:17:01;;;;;;;338.08;170.02;;;;;;;18.03;99.22;99220.56;5045180;28;20049;-61
2021/12/15 08:19:36;;;;;;;337.75;165.65;;;;;;;18.03;99.95;99213.59;5038745;28;20156;-61
2021/12/15 08:22:24;;;;;;;318.33;166.98;;;;;;;17.96;99.73;99215.63;5042405;28;20470;-62
2021/12/15 08:25:06;;;;;;;292.17;146.27;;;;;;;17.90;94.14;99213.34;5042980;28;20132;-61
2021/12/15 08:27:55;;;;;;;322.42;161.70;;;;;;;17.93;99.25;99202.78;5041785;28;20116;-62
2021/12/15 08:30:45;;;;;;;316.67;162.98;;;;;;;17.83;98.10;99196.34;5039728;28;20053;-62
2021/12/15 08:33:27;;;;;;;322.95;159.75;;;;;;;17.79;97.44;99202.66;5044379;28;20447;-60
2021/12/15 08:36:19;;;;;;;302.67;147.10;;;;;;;17.94;95.39;99198.41;5044476;28;20112;-61
2021/12/15 08:39:01;;;;;;;304.50;155.40;;;;;;;17.80;95.45;99187.88;5044285;28;20055;-62
2021/12/15 08:41:49;;;;;;;282.13;137.90;;;;;;;17.49;88.88;99183.31;5046270;28;20048;-62
2021/12/15 08:44:37;;;;;;;302.63;151.68;;;;;;;17.53;92.89;99184.84;5029156;28;20049;-61
2021/12/15 08:47:19;;;;;;;334.35;167.63;;;;;;;17.63;96.95;99175.69;5042273;28;20036;-62
2021/12/15 08:50:11;;;;;;;329.10;159.35;;;;;;;17.59;95.87;99180.16;5040245;28;20052;-63
2021/12/15 08:53:01;;;;;;;331.10;166.40;;;;;;;17.51;97.61;99173.66;5033021;28;20056;-62
2021/12/15 08:55:50;;;;;;;335.20;158.15;;;;;;;17.43;94.73;99178.41;5043923;28;20439;-61
2021/12/15 08:58:41;;;;;;;330.20;165.90;;;;;;;17.52;96.56;99164.94;5042802;28;20515;-62
2021/12/15 09:01:24;;;;;;;338.70;156.57;;;;;;;17.41;93.63;99159.41;5042427;28;20051;-63
2021/12/15 09:04:20;;;;;;;364.92;177.18;;;;;;;17.44;97.82;99159.25;5036637;28;20041;-62
2021/12/15 09:06:55;;;;;;;355.67;171.50;;;;;;;17.40;96.05;99155.13;5039087;28;20045;-61
2021/12/15 09:09:49;;;;;;;360.33;175.02;;;;;;;17.47;96.57;99139.13;5042305;28;20460;-62
2021/12/15 09:12:24;;;;;;;363.00;175.38;;;;;;;17.53;96.13;99145.78;5042885;28;20049;-61
2021/12/15 09:15:13;;;;;;;321.48;155.77;;;;;;;17.54;93.49;99139.66;5043039;28;20060;-63
2021/12/15 09:18:01;;;;;;;294.42;142.55;;;;;;;17.54;90.30;99145.69;5042439;28;20044;-62
2021/12/15 09:20:50;;;;;;;305.58;151.98;;;;;;;17.65;93.87;99141.72;5036697;28;20048;-62
2021/12/15 09:23:38;;;;;;;326.77;154.90;;;;;;;17.51;93.55;99140.63;5044707;28;20555;-62
2021/12/15 09:26:27;;;;;;;315.52;153.38;;;;;;;17.60;93.64;99136.72;5042802;28;20048;-62
2021/12/15 09:29:16;;;;;;;338.45;158.93;;;;;;;17.53;95.20;99140.56;5038188;28;20530;-61
2021/12/15 09:32:05;;;;;;;325.77;158.07;;;;;;;17.59;95.94;99127.22;5045816;28;20435;-62
2021/12/15 09:34:47;;;;;;;325.45;153.80;;;;;;;17.48;94.29;99125.16;5044530;28;20045;-62
2021/12/15 09:37:36;;;;;;;326.27;148.95;;;;;;;17.48;96.06;99125.16;5043920;28;20052;-62
2021/12/15 09:40:19;;;;;;;310.52;150.63;;;;;;;17.51;96.85;99113.72;5031124;28;20404;-63
2021/12/15 09:43:08;;;;;;;;;;;;;;;17.40;95.58;99121.28;5023560;28;20048;-63
2021/12/15 10:04:21;;;;;;;294.55;144.65;;;;;;;17.12;93.85;99101.81;5032875;28;20038;-61
2021/12/15 10:10:40;;;;;;;307.38;147.40;;;;;;;17.16;96.90;99097.31;5026983;28;20048;-62
2021/12/15 10:10:43;;;;;;;301.92;148.07;;;;;;;17.11;98.56;99094.06;5035509;28;20048;-62
2021/12/15 10:19:59;;;;;;;330.77;155.02;;;;;;;16.97;100.00;99078.31;5040817;28;20134;-61
2021/12/15 10:23:01;;;;;;;320.85;156.88;;;;;;;16.92;100.00;99072.50;5040693;28;20052;-62
2021/12/15 10:25:45;;;;;;;344.27;163.68;;;;;;;16.78;100.00;99065.34;5036816;28;20053;-63
2021/12/15 10:28:35;;;;;;;341.15;162.05;;;;;;;16.76;100.00;99060.22;5039146;28;20135;-63
2021/12/15 10:31:20;;;;;;;333.15;161.45;;;;;;;16.88;100.00;99063.97;5037942;28;20065;-64
2021/12/15 10:34:10;;;;;;;348.77;164.10;;;;;;;16.96;100.00;99061.00;5024896;28;20543;-64
2021/12/15 10:37:11;;;;;;;348.83;166.45;;;;;;;16.80;100.00;99058.31;5039701;28;20111;-64
2021/12/15 10:40:25;;;;;;;349.10;172.20;;;;;;;16.75;100.00;99052.50;5045659;28;20675;-62
2021/12/15 10:43:20;;;;;;;371.67;180.13;;;;;;;16.69;100.00;99051.03;5041981;28;20135;-61
2021/12/15 10:46:03;;;;;;;366.75;173.77;;;;;;;16.61;100.00;99049.72;5034199;28;20402;-62
2021/12/15 10:49:12;;;;;;;378.35;176.60;;;;;;;16.69;100.00;99048.44;5042443;28;20547;-62
2021/12/15 10:51:55;;;;;;;372.20;178.23;;;;;;;16.66;100.00;99046.00;5040905;28;20140;-62
2021/12/15 10:54:49;;;;;;;386.42;182.30;;;;;;;16.56;100.00;99034.31;5038868;28;20049;-62
2021/12/15 10:57:44;;;;;;;384.50;183.15;;;;;;;16.48;100.00;99025.19;5037914;28;20137;-62
2021/12/15 11:00:36;;;;;;;383.52;185.60;;;;;;;16.59;100.00;99030.72;5036520;28;20060;-62
2021/12/15 11:03:23;;;;;;;381.13;182.40;;;;;;;16.50;100.00;99028.56;5042009;28;20144;-62
2021/12/15 11:06:33;;;;;;;402.13;191.27;;;;;;;16.44;100.00;99019.31;5045147;28;20095;-62
2021/12/15 11:09:23;;;;;;;397.85;190.52;;;;;;;16.39;100.00;99014.31;5047393;28;20041;-62
2021/12/15 11:12:40;;;;;;;398.08;188.90;;;;;;;16.31;100.00;99021.66;5046072;28;20041;-62
2021/12/15 11:15:17;;;;;;;390.08;189.70;;;;;;;16.30;100.00;99012.16;5047937;28;20053;-62
2021/12/15 11:18:28;;;;;;;392.83;190.52;;;;;;;16.20;100.00;99015.28;5039741;28;20069;-62
2021/12/15 11:21:17;;;;;;;393.35;189.90;;;;;;;16.10;100.00;99009.66;5045620;28;20075;-63
2021/12/15 11:24:11;;;;;;;391.40;194.05;;;;;;;16.01;100.00;99010.09;5045892;28;20052;-62
2021/12/15 11:27:22;;;;;;;404.17;193.88;;;;;;;15.86;100.00;99016.84;5020878;28;20421;-62
2021/12/15 11:30:14;;;;;;;415.50;198.02;;;;;;;15.81;100.00;99012.75;5034652;28;20106;-62
2021/12/15 11:33:13;;;;;;;413.27;197.38;;;;;;;15.74;100.00;99011.34;5043905;28;20056;-61
2021/12/15 11:36:27;;;;;;;426.15;198.52;;;;;;;15.62;100.00;99011.03;5026070;28;20049;-63
2021/12/15 11:39:30;;;;;;;432.92;203.45;;;;;;;15.52;100.00;99007.13;5022835;28;20377;-61
2021/12/15 11:42:12;;;;;;;429.90;207.52;;;;;;;15.47;100.00;99001.28;5042450;28;20053;-61
2021/12/15 11:45:14;;;;;;;424.75;202.77;;;;;;;15.35;100.00;99003.56;5040770;28;20095;-62
2021/12/15 11:48:26;;;;;;;435.65;209.10;;;;;;;15.22;100.00;98987.72;5039387;28;20061;-61
2021/12/15 11:51:16;;;;;;;438.55;209.45;;;;;;;15.14;100.00;98994.97;5040513;28;20429;-62
2021/12/15 11:53:57;;;;;;;442.52;211.93;;;;;;;15.08;100.00;98993.50;5042699;28;20435;-61
2021/12/15 11:56:47;;;;;;;440.67;216.25;;;;;;;15.01;100.00;98989.47;5047028;28;20053;-61
2021/12/15 11:59:32;;;;;;;433.77;210.40;;;;;;;14.91;100.00;98989.03;5044478;28;20107;-60
2021/12/15 12:02:26;;;;;;;445.40;217.45;;;;;;;14.82;100.00;98989.44;5042188;28;20167;-62
2021/12/15 12:05:29;;;;;;;440.45;212.50;;;;;;;14.73;100.00;98987.22;5019570;28;20393;-61
2021/12/15 12:08:09;;;;;;;457.45;219.13;;;;;;;14.70;100.00;98983.88;5013448;28;20494;-61
2021/12/15 12:11:05;;;;;;;442.83;215.57;;;;;;;14.61;100.00;98986.88;5016116;28;20056;-62
2021/12/15 12:13:50;;;;;;;449.20;215.82;;;;;;;14.51;100.00;98986.41;5024903;28;20815;-62
2021/12/15 12:16:38;;;;;;;451.75;218.35;;;;;;;14.46;100.00;98983.16;5027291;28;20053;-62
2021/12/15 12:19:21;;;;;;;455.63;219.65;;;;;;;14.47;100.00;98977.91;5026803;28;20492;-61
2021/12/15 12:22:18;;;;;;;446.17;209.98;;;;;;;14.36;100.00;98985.28;5020244;28;20050;-63
2021/12/15 12:24:56;;;;;;;454.58;213.07;;;;;;;14.23;100.00;98972.84;5025081;28;20053;-62
2021/12/15 12:27:53;;;;;;;454.52;218.55;;;;;;;14.15;100.00;98968.81;5026311;28;20630;-62
2021/12/15 12:30:44;;;;;;;455.00;218.45;;;;;;;14.20;100.00;98967.81;5025658;28;20376;-62
2021/12/15 12:33:34;;;;;;;452.92;218.65;;;;;;;14.01;100.00;98967.69;5019327;28;20257;-61
2021/12/15 12:36:25;;;;;;;466.58;221.93;;;;;;;13.95;100.00;98973.94;5017402;28;20049;-62
2021/12/15 12:39:22;;;;;;;465.35;219.63;;;;;;;13.74;100.00;98977.34;5023762;28;20041;-65
2021/12/15 12:41:57;;;;;;;460.35;221.70;;;;;;;13.86;100.00;98979.47;5013000;28;20111;-60
2021/12/15 12:44:50;;;;;;;460.05;226.93;;;;;;;13.93;100.00;98988.69;5021193;28;20049;-62
2021/12/15 12:47:36;;;;;;;457.83;220.73;;;;;;;13.91;100.00;98981.88;5016440;28;20491;-62
2021/12/15 12:59:59;;;;;;;467.35;220.25;;;;;;;13.84;100.00;98989.06;5023785;28;20119;-63
2021/12/15 13:02:45;;;;;;;460.27;218.30;;;;;;;14.08;100.00;98987.25;5003293;28;20172;-63
2021/12/15 13:05:52;;;;;;;459.65;213.88;;;;;;;14.04;100.00;98989.13;5013935;28;20144;-63
2021/12/15 13:08:53;;;;;;;468.90;217.88;;;;;;;13.89;100.00;98984.53;5000015;28;20052;-65
2021/12/15 13:11:46;;;;;;;477.35;219.43;;;;;;;13.85;100.00;98988.16;5017175;28;20053;-62
2021/12/15 13:14:38;;;;;;;523.88;233.98;;;;;;;13.89;100.00;98984.53;5019912;28;20112;-63
2021/12/15 13:17:29;;;;;;;539.30;244.85;;;;;;;13.86;100.00;98989.84;5023657;28;20056;-63
2021/12/15 13:20:30;;;;;;;559.72;244.32;;;;;;;13.81;100.00;98985.75;5021615;28;20123;-62
2021/12/15 13:29:23;;;;;;;600.42;260.33;;;;;;;13.79;100.00;98998.75;5024111;28;20050;-66
2021/12/15 13:32:12;;;;;;;592.53;261.55;;;;;;;13.81;100.00;98998.69;5020131;28;20753;-65
2021/12/15 13:34:57;;;;;;;599.05;267.33;;;;;;;13.71;100.00;98991.28;5022628;28;20049;-64
2021/12/15 13:37:59;;;;;;;608.45;270.88;;;;;;;13.62;100.00;98994.19;5020524;28;20037;-62
2021/12/15 13:41:03;;;;;;;635.00;273.20;;;;;;;13.66;100.00;98992.31;5019206;28;20049;-63
2021/12/15 13:44:04;;;;;;;615.60;270.05;;;;;;;13.71;100.00;98995.59;5019077;28;20069;-62
2021/12/15 13:47:01;;;;;;;621.22;275.98;;;;;;;13.93;100.00;98999.06;5024062;28;20053;-61
2021/12/15 13:49:49;;;;;;;619.95;278.75;;;;;;;13.92;100.00;98999.97;5021963;28;20048;-62
2021/12/15 13:52:45;;;;;;;620.67;275.42;;;;;;;13.78;100.00;99002.25;5003408;28;20154;-63
2021/12/15 13:55:39;;;;;;;610.50;269.98;;;;;;;13.79;100.00;99002.19;5022721;28;20052;-63
2021/12/15 13:58:25;;;;;;;609.45;272.80;;;;;;;13.66;100.00;98997.50;5019146;28;20420;-62
2021/12/15 14:01:16;;;;;;;597.13;268.30;;;;;;;13.53;100.00;99002.31;5016783;28;20049;-62